createdAt,value
2022-08-22T00:03:15.513Z,97863.69
2022-08-22T00:08:18.597Z,97858.38
2022-08-22T00:13:32.341Z,97852.41
2022-08-22T00:18:57.677Z,97848.25
2022-08-22T00:24:08.353Z,97855.16
2022-08-22T00:29:15.082Z,97852.91
2022-08-22T00:34:24.515Z,97853.34
2022-08-22T00:39:37.064Z,97868.28
2022-08-22T00:44:50.326Z,97858.75
2022-08-22T00:50:10.488Z,97869.16
2022-08-22T00:55:14.845Z,97862.78
2022-08-22T01:00:21.320Z,97872.97
2022-08-22T01:05:22.620Z,97870.03
2022-08-22T01:10:27.000Z,97871.09
2022-08-22T01:15:29.933Z,97872.13
2022-08-22T01:20:43.472Z,97872.97
2022-08-22T01:26:11.887Z,97866.75
2022-08-22T01:31:25.387Z,97865.09
2022-08-22T01:36:45.193Z,97870.69
2022-08-22T01:42:05.233Z,97872.56
2022-08-22T01:47:15.346Z,97870.91
2022-08-22T01:52:34.771Z,97880.03
2022-08-22T01:57:55.908Z,97875.72
2022-08-22T02:03:04.189Z,97871.34
2022-08-22T02:08:17.132Z,97878.41
2022-08-22T02:13:28.977Z,97880.03
2022-08-22T02:18:41.821Z,97876.28
2022-08-22T02:23:48.061Z,97877.97
2022-08-22T02:28:58.918Z,97877.53
2022-08-22T02:34:02.839Z,97879.16
2022-08-22T02:39:04.174Z,97888.50
2022-08-22T02:44:21.039Z,97885.44
2022-08-22T02:49:22.404Z,97880.72
2022-08-22T02:54:58.261Z,97877.78
2022-08-22T03:00:31.819Z,97876.72
2022-08-22T03:05:37.388Z,97878.16
2022-08-22T03:10:40.878Z,97878.41
2022-08-22T03:15:48.580Z,97873.00
2022-08-22T03:21:20.356Z,97871.78
2022-08-22T03:26:30.439Z,97871.19
2022-08-22T03:31:32.209Z,97871.00
2022-08-22T03:36:34.797Z,97867.25
2022-08-22T03:41:36.145Z,97875.75
2022-08-22T03:46:43.552Z,97867.69
2022-08-22T03:51:44.844Z,97874.91
2022-08-22T03:57:07.513Z,97873.06
2022-08-22T04:02:42.337Z,97876.19
2022-08-22T04:07:39.798Z,97868.13
2022-08-22T04:12:44.072Z,97875.56
2022-08-22T04:18:17.899Z,97870.19
2022-08-22T04:23:28.669Z,97880.53
2022-08-22T04:28:34.596Z,97883.84
2022-08-22T04:33:59.490Z,97883.41
2022-08-22T04:39:14.464Z,97883.84
2022-08-22T04:44:37.184Z,97885.03
2022-08-22T04:49:40.429Z,97888.13
2022-08-22T04:54:41.762Z,97891.81
2022-08-22T04:59:43.884Z,97888.25
2022-08-22T05:04:46.990Z,97893.59
2022-08-22T05:09:50.496Z,97897.47
2022-08-22T05:14:54.606Z,97905.94
2022-08-22T05:19:58.658Z,97907.19
2022-08-22T05:25:02.432Z,97913.56
2022-08-22T05:30:08.009Z,97920.28
2022-08-22T05:35:09.890Z,97923.78
2022-08-22T05:40:19.059Z,97926.19
2022-08-22T05:45:21.116Z,97926.97
2022-08-22T05:50:30.118Z,97921.28
2022-08-22T05:55:43.886Z,97928.66
2022-08-22T06:00:47.196Z,97934.00
2022-08-22T06:05:51.836Z,97933.03
2022-08-22T06:10:54.929Z,97934.53
2022-08-22T06:16:13.989Z,97927.91
2022-08-22T06:21:26.400Z,97936.47
2022-08-22T06:26:31.209Z,97935.72
2022-08-22T06:31:36.454Z,97944.69
2022-08-22T06:36:39.029Z,97943.41
2022-08-22T06:41:43.076Z,97936.69
2022-08-22T06:46:49.493Z,97934.19
2022-08-22T06:51:51.333Z,97935.50
2022-08-22T06:56:54.174Z,97940.59
2022-08-22T07:02:21.845Z,97938.88
2022-08-22T07:07:25.301Z,97944.97
2022-08-22T07:12:31.121Z,97947.13
2022-08-22T07:17:32.740Z,97942.56
2022-08-22T07:22:36.440Z,97948.56
2022-08-22T07:27:48.926Z,97961.06
2022-08-22T07:33:26.173Z,97957.72
2022-08-22T07:38:32.273Z,97958.06
2022-08-22T07:43:43.031Z,97952.97
2022-08-22T07:49:05.838Z,97966.38
2022-08-22T07:54:09.565Z,97965.66
2022-08-22T07:59:17.437Z,97962.91
2022-08-22T08:04:24.804Z,97958.06
2022-08-22T08:09:28.305Z,97960.13
2022-08-22T08:14:30.715Z,97960.97
2022-08-22T08:19:34.340Z,97960.09
2022-08-22T08:24:41.522Z,97961.84
2022-08-22T08:29:56.099Z,97957.16
2022-08-22T08:34:57.602Z,97956.53
2022-08-22T08:40:01.905Z,97962.31
2022-08-22T08:45:06.269Z,97953.44
2022-08-22T08:50:22.513Z,97962.41
2022-08-22T08:55:34.317Z,97967.00
2022-08-22T09:00:42.042Z,97956.47
2022-08-22T09:05:49.713Z,97960.06
2022-08-22T09:10:51.058Z,97956.84
2022-08-22T09:16:05.671Z,97964.81
2022-08-22T09:21:23.850Z,97962.00
2022-08-22T09:26:41.551Z,97964.47
2022-08-22T09:31:54.033Z,97966.69
2022-08-22T09:37:18.153Z,97966.84
2022-08-22T09:42:28.605Z,97969.50
2022-08-22T09:47:35.677Z,97968.50
2022-08-22T09:52:46.828Z,97963.31
2022-08-22T09:57:55.331Z,97963.72
2022-08-22T10:03:12.197Z,97962.47
2022-08-22T10:08:13.542Z,97973.16
2022-08-22T10:13:34.886Z,97956.28
2022-08-22T10:19:08.933Z,97969.38
2022-08-22T10:24:30.623Z,97972.38
2022-08-22T10:29:44.067Z,97976.47
2022-08-22T10:34:48.621Z,97978.63
2022-08-22T10:40:08.135Z,97989.22
2022-08-22T10:45:35.751Z,97981.22
2022-08-22T10:50:48.069Z,97975.56
2022-08-22T10:55:51.817Z,97980.19
2022-08-22T11:00:59.463Z,97979.09
2022-08-22T11:06:08.216Z,97986.13
2022-08-22T11:11:11.580Z,97983.69
2022-08-22T11:16:14.258Z,97988.34
2022-08-22T11:21:31.418Z,97986.75
2022-08-22T11:26:47.748Z,97990.53
2022-08-22T11:32:12.049Z,97985.63
2022-08-22T11:37:42.587Z,97988.09
2022-08-22T11:42:50.974Z,97987.88
2022-08-22T11:48:07.394Z,97989.16
2022-08-22T11:53:28.977Z,97993.59
2022-08-22T11:58:49.173Z,97984.97
2022-08-22T12:04:00.459Z,97982.06
2022-08-22T12:09:11.923Z,97983.66
2022-08-22T12:14:19.848Z,97982.31
2022-08-22T12:19:34.310Z,97974.72
2022-08-22T12:25:03.374Z,97975.63
2022-08-22T12:30:13.011Z,97979.19
2022-08-22T12:35:18.470Z,97962.91
2022-08-22T12:40:28.186Z,97959.38
2022-08-22T12:45:53.463Z,97952.75
2022-08-22T12:51:04.317Z,97955.19
2022-08-22T12:56:19.085Z,97948.16
2022-08-22T13:01:23.223Z,97937.25
2022-08-22T13:06:35.287Z,97939.41
2022-08-22T13:11:39.911Z,97938.88
2022-08-22T13:16:48.953Z,97934.19
2022-08-22T13:21:59.140Z,97943.63
2022-08-22T13:27:02.915Z,97947.94
2022-08-22T13:32:08.223Z,97949.81
2022-08-22T13:37:13.988Z,97951.16
2022-08-22T13:42:27.654Z,97946.75
2022-08-22T13:47:34.651Z,97947.78
2022-08-22T13:52:42.897Z,97945.34
2022-08-22T13:58:02.784Z,97943.97
2022-08-22T14:03:15.103Z,97947.19
2022-08-22T14:08:22.708Z,97943.91
2022-08-22T14:13:32.830Z,97943.81
2022-08-22T14:18:45.690Z,97938.63
2022-08-22T14:23:51.790Z,97932.06
2022-08-22T14:28:56.498Z,97930.66
2022-08-22T14:33:59.927Z,97930.31
2022-08-22T14:39:10.052Z,97925.03
2022-08-22T14:44:17.443Z,97920.56
2022-08-22T14:49:18.753Z,97921.59
2022-08-22T14:54:21.937Z,97925.63
2022-08-22T14:59:32.213Z,97926.38
2022-08-22T15:04:38.997Z,97923.66
2022-08-22T15:09:43.369Z,97933.19
2022-08-22T15:14:52.234Z,97935.16
2022-08-22T15:20:04.745Z,97935.09
2022-08-22T15:25:19.331Z,97939.31
2022-08-22T15:30:44.499Z,97931.97
2022-08-22T15:35:46.462Z,97932.75
2022-08-22T15:40:47.821Z,97930.50
2022-08-22T15:45:51.342Z,97931.50
2022-08-22T15:50:58.155Z,97921.66
2022-08-22T15:56:05.051Z,97921.03
2022-08-22T16:01:19.187Z,97913.59
2022-08-22T16:06:40.565Z,97920.97
2022-08-22T16:11:52.360Z,97920.97
2022-08-22T16:16:56.166Z,97920.34
2022-08-22T16:21:59.294Z,97919.22
2022-08-22T16:27:14.547Z,97931.03
2022-08-22T16:32:23.292Z,97939.59
2022-08-22T16:37:41.585Z,97941.19
2022-08-22T16:42:49.356Z,97941.28
2022-08-22T16:47:58.071Z,97946.50
2022-08-22T16:53:29.483Z,97948.91
2022-08-22T16:58:58.915Z,97958.88
2022-08-22T17:04:10.800Z,97961.50
2022-08-22T17:09:30.971Z,97951.44
2022-08-22T17:14:51.928Z,97964.97
2022-08-22T17:20:10.979Z,97963.16
2022-08-22T17:25:18.571Z,97962.34
2022-08-22T17:30:23.351Z,97960.38
2022-08-22T17:35:33.741Z,97962.03
2022-08-22T17:40:38.235Z,97965.78
2022-08-22T17:46:00.694Z,97970.03
2022-08-22T17:51:11.194Z,97969.13
2022-08-22T17:56:22.202Z,97969.94
2022-08-22T18:01:35.852Z,97985.09
2022-08-22T18:06:44.025Z,97979.66
2022-08-22T18:12:01.320Z,97986.41
2022-08-22T18:17:13.022Z,97983.94
2022-08-22T18:22:20.266Z,97986.56
2022-08-22T18:27:34.489Z,97989.19
2022-08-22T18:32:37.009Z,97983.69
2022-08-22T18:37:57.043Z,97984.75
2022-08-22T18:43:16.175Z,97986.81
2022-08-22T18:48:26.701Z,97981.56
2022-08-22T18:53:46.776Z,97977.88
2022-08-22T18:59:14.441Z,97980.75
2022-08-22T19:04:29.353Z,97985.59
2022-08-22T19:09:40.996Z,97988.06
2022-08-22T19:14:48.124Z,97987.00
2022-08-22T19:20:14.255Z,97983.47
2022-08-22T19:25:25.821Z,97988.31
2022-08-22T19:30:47.400Z,97984.69
2022-08-22T19:35:51.705Z,97990.59
2022-08-22T19:40:55.400Z,97993.31
2022-08-22T19:46:00.700Z,97986.84
2022-08-22T19:51:06.941Z,97994.38
2022-08-22T19:56:12.656Z,97997.56
2022-08-22T20:01:28.964Z,97997.81
2022-08-22T20:06:45.499Z,97998.28
2022-08-22T20:11:46.812Z,97994.19
2022-08-22T20:17:00.102Z,97993.84
2022-08-22T20:22:03.566Z,97987.53
2022-08-22T20:27:16.309Z,97981.16
2022-08-22T20:32:18.774Z,97988.38
2022-08-22T20:37:36.094Z,97983.91
2022-08-22T20:42:47.209Z,97981.09
2022-08-22T20:47:50.915Z,97972.88
2022-08-22T20:53:09.293Z,97971.13
2022-08-22T20:58:22.608Z,97969.63
2022-08-22T21:03:27.026Z,97967.28
2022-08-22T21:08:28.345Z,97976.09
2022-08-22T21:13:33.212Z,97972.44
2022-08-22T21:18:36.167Z,97982.38
2022-08-22T21:23:38.856Z,97978.47
2022-08-22T21:28:53.470Z,97975.69
2022-08-22T21:33:55.556Z,97973.44
2022-08-22T21:38:59.236Z,97973.94
2022-08-22T21:44:17.027Z,97970.63
2022-08-22T21:49:23.107Z,97966.50
2022-08-22T21:54:24.470Z,97965.94
2022-08-22T21:59:50.840Z,97965.56
2022-08-22T22:04:53.701Z,97955.69
2022-08-22T22:09:55.522Z,97962.53
2022-08-22T22:14:56.960Z,97967.13
2022-08-22T22:19:58.315Z,97965.09
2022-08-22T22:24:59.630Z,97971.59
2022-08-22T22:30:01.139Z,97981.34
2022-08-22T22:35:02.500Z,97969.22
2022-08-22T22:40:07.316Z,97971.47
2022-08-22T22:45:10.616Z,97966.28
2022-08-22T22:50:11.999Z,97969.81
2022-08-22T22:55:24.596Z,97970.41
2022-08-22T23:00:31.432Z,97961.09
2022-08-22T23:05:33.671Z,97965.56
2022-08-22T23:10:35.160Z,97953.94
2022-08-22T23:15:36.851Z,97960.97
2022-08-22T23:20:38.196Z,97963.13
2022-08-22T23:25:39.530Z,97956.03
2022-08-22T23:30:41.014Z,97950.50
2022-08-22T23:35:42.336Z,97948.25
2022-08-22T23:40:43.699Z,97961.19
2022-08-22T23:45:45.026Z,97958.72
2022-08-22T23:50:46.378Z,97948.38
2022-08-22T23:55:47.715Z,97944.00
